createdAt,value
2023-04-03T00:01:19.058Z,100.00
2023-04-03T00:03:46.635Z,100.00
2023-04-03T00:06:14.167Z,100.00
2023-04-03T00:08:41.943Z,100.00
2023-04-03T00:11:10.840Z,100.00
2023-04-03T00:13:39.977Z,100.00
2023-04-03T00:16:12.323Z,100.00
2023-04-03T00:18:43.495Z,100.00
2023-04-03T00:21:14.608Z,100.00
2023-04-03T00:23:41.857Z,100.00
2023-04-03T00:26:15.547Z,100.00
2023-04-03T00:28:43.638Z,100.00
2023-04-03T00:31:11.238Z,100.00
2023-04-03T00:33:38.475Z,100.00
2023-04-03T00:36:11.439Z,100.00
2023-04-03T00:38:40.916Z,100.00
2023-04-03T00:41:08.877Z,100.00
2023-04-03T00:43:36.238Z,100.00
2023-04-03T00:46:03.478Z,100.00
2023-04-03T00:49:05.044Z,100.00
2023-04-03T00:51:32.705Z,100.00
2023-04-03T00:54:06.394Z,100.00
2023-04-03T00:56:34.082Z,100.00
2023-04-03T00:59:16.397Z,100.00
2023-04-03T01:01:44.876Z,100.00
2023-04-03T01:04:38.127Z,100.00
2023-04-03T01:07:19.969Z,100.00
2023-04-03T01:09:53.937Z,100.00
2023-04-03T01:13:11.669Z,100.00
2023-04-03T01:15:38.988Z,100.00
2023-04-03T01:18:06.300Z,100.00
2023-04-03T01:20:34.064Z,100.00
2023-04-03T01:23:11.557Z,100.00
2023-04-03T01:25:49.774Z,100.00
2023-04-03T01:28:43.526Z,100.00
2023-04-03T01:31:25.877Z,100.00
2023-04-03T01:33:56.078Z,100.00
2023-04-03T01:36:30.964Z,100.00
2023-04-03T01:39:00.955Z,100.00
2023-04-03T01:41:29.713Z,100.00
2023-04-03T01:44:04.909Z,100.00
2023-04-03T01:46:32.691Z,100.00
2023-04-03T01:48:59.919Z,100.00
2023-04-03T01:51:27.099Z,100.00
2023-04-03T01:53:54.334Z,100.00
2023-04-03T01:56:22.088Z,100.00
2023-04-03T01:58:49.736Z,100.00
2023-04-03T02:01:18.602Z,100.00
2023-04-03T02:03:46.003Z,100.00
2023-04-03T02:06:13.200Z,100.00
2023-04-03T02:09:01.549Z,100.00
2023-04-03T02:11:28.842Z,100.00
2023-04-03T02:13:56.305Z,100.00
2023-04-03T02:16:23.915Z,100.00
2023-04-03T02:18:51.480Z,100.00
2023-04-03T02:21:18.977Z,100.00
2023-04-03T02:23:46.339Z,100.00
2023-04-03T02:26:16.885Z,100.00
2023-04-03T02:28:46.766Z,100.00
2023-04-03T02:31:14.171Z,100.00
2023-04-03T02:33:43.388Z,100.00
2023-04-03T02:36:13.656Z,100.00
2023-04-03T02:38:43.873Z,100.00
2023-04-03T02:41:13.686Z,100.00
2023-04-03T02:43:41.381Z,100.00
2023-04-03T02:46:09.532Z,100.00
2023-04-03T02:48:37.687Z,100.00
2023-04-03T02:51:05.590Z,100.00
2023-04-03T02:53:32.965Z,100.00
2023-04-03T02:56:06.069Z,100.00
2023-04-03T02:58:33.238Z,100.00
2023-04-03T03:01:02.507Z,100.00
2023-04-03T03:03:29.830Z,100.00
2023-04-03T03:06:06.870Z,100.00
2023-04-03T03:08:35.254Z,100.00
2023-04-03T03:11:03.851Z,100.00
2023-04-03T03:13:31.511Z,100.00
2023-04-03T03:15:58.969Z,100.00
2023-04-03T03:18:26.575Z,100.00
2023-04-03T03:20:57.153Z,100.00
2023-04-03T03:23:27.352Z,100.00
2023-04-03T03:26:01.720Z,100.00
2023-04-03T03:28:29.105Z,100.00
2023-04-03T03:30:56.681Z,100.00
2023-04-03T03:33:24.978Z,100.00
2023-04-03T03:35:54.286Z,100.00
2023-04-03T03:38:22.296Z,100.00
2023-04-03T03:40:50.872Z,100.00
2023-04-03T03:43:21.222Z,100.00
2023-04-03T03:45:54.958Z,100.00
2023-04-03T03:48:24.558Z,100.00
2023-04-03T03:50:51.952Z,100.00
2023-04-03T03:53:22.032Z,100.00
2023-04-03T03:55:52.849Z,100.00
2023-04-03T03:58:22.580Z,100.00
2023-04-03T04:00:49.789Z,100.00
2023-04-03T04:03:17.350Z,100.00
2023-04-03T04:05:48.494Z,100.00
2023-04-03T04:08:15.816Z,100.00
2023-04-03T04:10:44.623Z,100.00
2023-04-03T04:13:13.507Z,100.00
2023-04-03T04:15:41.309Z,100.00
2023-04-03T04:18:08.854Z,100.00
2023-04-03T04:20:36.054Z,100.00
2023-04-03T04:23:03.533Z,100.00
2023-04-03T04:25:32.149Z,100.00
2023-04-03T04:27:59.423Z,100.00
2023-04-03T04:30:28.413Z,100.00
2023-04-03T04:32:57.276Z,100.00
2023-04-03T04:35:25.381Z,100.00
2023-04-03T04:37:53.537Z,100.00
2023-04-03T04:40:22.078Z,100.00
2023-04-03T04:42:49.476Z,100.00
2023-04-03T04:45:17.345Z,100.00
2023-04-03T04:47:47.072Z,100.00
2023-04-03T04:50:14.756Z,100.00
2023-04-03T04:52:42.331Z,100.00
2023-04-03T04:55:09.889Z,100.00
2023-04-03T04:57:38.067Z,100.00
2023-04-03T05:00:06.964Z,100.00
2023-04-03T05:02:34.587Z,100.00
2023-04-03T05:05:04.401Z,100.00
2023-04-03T05:07:33.188Z,100.00
2023-04-03T05:10:01.369Z,100.00
2023-04-03T05:12:29.664Z,100.00
2023-04-03T05:15:00.829Z,100.00
2023-04-03T05:17:30.347Z,100.00
2023-04-03T05:19:58.152Z,100.00
2023-04-03T05:22:27.362Z,100.00
2023-04-03T05:24:58.037Z,100.00
2023-04-03T05:27:26.007Z,100.00
2023-04-03T05:29:56.403Z,100.00
2023-04-03T05:32:27.333Z,100.00
2023-04-03T05:35:07.531Z,100.00
2023-04-03T05:37:35.528Z,100.00
2023-04-03T05:40:05.510Z,100.00
2023-04-03T05:42:33.647Z,100.00
2023-04-03T05:45:01.093Z,100.00
2023-04-03T05:47:28.415Z,100.00
2023-04-03T05:49:55.817Z,100.00
2023-04-03T05:52:30.242Z,100.00
2023-04-03T05:54:58.427Z,100.00
2023-04-03T05:57:28.639Z,100.00
2023-04-03T05:59:56.464Z,100.00
2023-04-03T06:02:27.083Z,100.00
2023-04-03T06:04:54.724Z,100.00
2023-04-03T06:07:28.912Z,100.00
2023-04-03T06:09:58.258Z,100.00
2023-04-03T06:12:25.800Z,100.00
2023-04-03T06:14:53.675Z,100.00
2023-04-03T06:17:21.331Z,100.00
2023-04-03T06:19:48.916Z,100.00
2023-04-03T06:22:16.592Z,100.00
2023-04-03T06:24:44.601Z,100.00
2023-04-03T06:27:13.213Z,100.00
2023-04-03T06:29:40.858Z,100.00
2023-04-03T06:32:08.007Z,100.00
2023-04-03T06:34:35.187Z,100.00
2023-04-03T06:37:03.055Z,100.00
2023-04-03T06:39:30.390Z,100.00
2023-04-03T06:41:57.585Z,100.00
2023-04-03T06:44:35.524Z,100.00
2023-04-03T06:47:02.768Z,100.00
2023-04-03T06:49:30.285Z,100.00
2023-04-03T06:51:58.516Z,100.00
2023-04-03T06:54:27.087Z,100.00
2023-04-03T06:56:54.230Z,100.00
2023-04-03T06:59:21.448Z,100.00
2023-04-03T07:01:48.739Z,100.00
2023-04-03T07:04:17.079Z,100.00
2023-04-03T07:06:44.400Z,100.00
2023-04-03T07:09:11.923Z,100.00
2023-04-03T07:11:39.150Z,100.00
2023-04-03T07:14:08.637Z,100.00
2023-04-03T07:16:36.584Z,100.00
2023-04-03T07:19:04.538Z,100.00
2023-04-03T07:21:31.749Z,100.00
2023-04-03T07:23:59.066Z,100.00
2023-04-03T07:26:26.570Z,100.00
2023-04-03T07:28:53.721Z,100.00
2023-04-03T07:31:21.548Z,100.00
2023-04-03T07:33:48.757Z,100.00
2023-04-03T07:36:20.948Z,100.00
2023-04-03T07:38:48.107Z,100.00
2023-04-03T07:41:19.198Z,100.00
2023-04-03T07:43:47.926Z,100.00
2023-04-03T07:46:15.254Z,100.00
2023-04-03T07:48:42.612Z,100.00
2023-04-03T07:51:11.575Z,100.00
2023-04-03T07:53:38.703Z,100.00
2023-04-03T07:56:06.383Z,100.00
2023-04-03T07:58:33.929Z,100.00
2023-04-03T08:01:01.566Z,100.00
2023-04-03T08:03:28.904Z,100.00
2023-04-03T08:06:03.169Z,100.00
2023-04-03T08:08:31.059Z,100.00
2023-04-03T08:11:01.559Z,100.00
2023-04-03T08:13:29.769Z,100.00
2023-04-03T08:15:58.253Z,100.00
2023-04-03T08:18:26.814Z,100.00
2023-04-03T08:20:53.954Z,100.00
2023-04-03T08:23:21.209Z,100.00
2023-04-03T08:25:48.376Z,100.00
2023-04-03T08:28:16.000Z,100.00
2023-04-03T08:30:43.711Z,100.00
2023-04-03T08:33:11.762Z,100.00
2023-04-03T08:35:43.441Z,100.00
2023-04-03T08:38:11.718Z,100.00
2023-04-03T08:40:46.240Z,100.00
2023-04-03T08:44:01.286Z,100.00
2023-04-03T08:47:14.541Z,100.00
2023-04-03T08:49:59.983Z,100.00
2023-04-03T08:52:46.498Z,100.00
2023-04-03T08:55:50.784Z,100.00
2023-04-03T08:58:25.884Z,100.00
2023-04-03T09:01:41.054Z,100.00
2023-04-03T09:04:20.404Z,100.00
2023-04-03T09:06:59.632Z,100.00
2023-04-03T09:09:37.004Z,100.00
2023-04-03T09:12:28.245Z,100.00
2023-04-03T09:15:31.344Z,100.00
2023-04-03T09:18:21.146Z,100.00
2023-04-03T09:21:26.519Z,100.00
2023-04-03T09:24:00.092Z,100.00
2023-04-03T09:26:40.297Z,100.00
2023-04-03T09:29:09.325Z,100.00
2023-04-03T09:31:44.891Z,100.00
2023-04-03T09:34:27.201Z,100.00
2023-04-03T09:37:06.738Z,100.00
2023-04-03T09:39:55.169Z,100.00
2023-04-03T09:42:26.793Z,100.00
2023-04-03T09:45:02.067Z,100.00
2023-04-03T09:47:39.036Z,100.00
2023-04-03T09:50:22.247Z,100.00
2023-04-03T09:52:55.408Z,100.00
2023-04-03T09:55:30.893Z,100.00
2023-04-03T09:58:06.006Z,100.00
2023-04-03T10:00:41.737Z,100.00
2023-04-03T10:03:37.484Z,100.00
2023-04-03T10:06:24.150Z,100.00
2023-04-03T10:09:08.569Z,100.00
2023-04-03T10:11:35.811Z,100.00
2023-04-03T10:14:06.876Z,100.00
2023-04-03T10:16:48.917Z,100.00
2023-04-03T10:19:45.292Z,100.00
2023-04-03T10:22:34.952Z,100.00
2023-04-03T10:25:29.039Z,100.00
2023-04-03T10:28:04.815Z,100.00
2023-04-03T10:30:53.716Z,100.00
2023-04-03T10:33:49.204Z,100.00
2023-04-03T10:36:35.736Z,100.00
2023-04-03T10:39:55.524Z,100.00
2023-04-03T10:43:02.922Z,100.00
2023-04-03T10:45:35.499Z,100.00
2023-04-03T10:48:45.002Z,100.00
2023-04-03T10:51:35.847Z,100.00
2023-04-03T10:54:27.612Z,100.00
2023-04-03T10:57:12.753Z,100.00
2023-04-03T10:59:59.298Z,100.00
2023-04-03T11:02:39.449Z,99.36
2023-04-03T11:05:27.864Z,93.55
2023-04-03T11:07:58.274Z,60.71
2023-04-03T11:11:01.546Z,81.97
2023-04-03T11:13:41.988Z,73.07
2023-04-03T11:16:09.705Z,82.82
2023-04-03T11:18:45.933Z,65.42
2023-04-03T11:21:33.512Z,60.23
2023-04-03T11:24:04.274Z,64.61
2023-04-03T11:26:38.441Z,61.63
2023-04-03T11:29:28.231Z,55.97
2023-04-03T11:33:19.891Z,45.12
2023-04-03T11:35:53.227Z,45.46
2023-04-03T11:38:32.266Z,53.85
2023-04-03T11:41:00.080Z,61.06
2023-04-03T11:43:30.772Z,62.03
2023-04-03T11:46:07.809Z,69.95
2023-04-03T11:48:46.431Z,76.70
2023-04-03T11:51:13.678Z,78.45
2023-04-03T11:53:43.612Z,89.74
2023-04-03T11:56:26.860Z,86.01
2023-04-03T11:59:06.130Z,87.72
2023-04-03T12:01:53.574Z,86.60
2023-04-03T12:04:26.336Z,86.95
2023-04-03T12:07:15.817Z,85.88
2023-04-03T12:09:43.453Z,87.75
2023-04-03T12:12:31.999Z,91.18
2023-04-03T12:15:44.465Z,94.20
2023-04-03T12:18:45.782Z,87.54
2023-04-03T12:21:19.329Z,90.57
2023-04-03T12:24:08.397Z,92.05
2023-04-03T12:27:21.487Z,89.39
2023-04-03T12:30:08.113Z,90.78
2023-04-03T12:32:41.754Z,84.21
2023-04-03T12:35:24.587Z,80.99
2023-04-03T12:39:12.220Z,82.50
2023-04-03T12:42:37.012Z,84.90
2023-04-03T12:45:25.308Z,85.62
2023-04-03T12:47:56.597Z,86.07
2023-04-03T12:50:33.759Z,85.58
2023-04-03T12:53:19.629Z,84.34
2023-04-03T12:55:46.854Z,80.34
2023-04-03T12:58:31.663Z,87.23
2023-04-03T13:01:20.122Z,84.34
2023-04-03T13:03:53.754Z,87.65
2023-04-03T13:06:32.078Z,85.55
2023-04-03T13:09:02.128Z,81.78
2023-04-03T13:11:41.819Z,82.45
2023-04-03T13:14:38.898Z,79.84
2023-04-03T13:17:16.321Z,79.41
2023-04-03T13:19:47.517Z,83.67
2023-04-03T13:22:40.537Z,78.38
2023-04-03T13:25:14.484Z,84.76
2023-04-03T13:27:44.851Z,80.63
2023-04-03T13:30:38.050Z,79.79
2023-04-03T13:33:24.596Z,81.49
2023-04-03T13:36:19.747Z,77.55
2023-04-03T13:38:47.248Z,76.52
2023-04-03T13:41:41.833Z,82.31
2023-04-03T13:44:24.296Z,76.79
2023-04-03T13:47:26.607Z,78.34
2023-04-03T13:50:15.609Z,77.11
2023-04-03T13:53:12.754Z,80.76
2023-04-03T13:56:15.669Z,85.05
2023-04-03T13:59:03.377Z,87.51
2023-04-03T14:02:13.433Z,93.66
2023-04-03T14:04:57.121Z,78.43
2023-04-03T14:07:25.987Z,67.11
2023-04-03T14:09:54.339Z,70.68
2023-04-03T14:12:34.492Z,74.91
2023-04-03T14:15:06.342Z,73.88
2023-04-03T14:17:33.647Z,76.09
2023-04-03T14:20:01.882Z,84.89
2023-04-03T14:22:34.494Z,89.31
2023-04-03T14:25:02.532Z,87.52
2023-04-03T14:27:42.524Z,86.07
2023-04-03T14:30:32.134Z,60.41
2023-04-03T14:33:01.054Z,52.53
2023-04-03T14:35:29.593Z,47.58
2023-04-03T14:37:57.249Z,52.74
2023-04-03T14:40:28.599Z,59.19
2023-04-03T14:42:56.479Z,51.34
2023-04-03T14:45:24.594Z,47.01
2023-04-03T14:47:57.614Z,48.86
2023-04-03T14:50:28.472Z,43.45
2023-04-03T14:53:00.157Z,48.39
2023-04-03T14:55:28.602Z,48.24
2023-04-03T14:57:56.031Z,54.61
2023-04-03T15:00:23.595Z,63.90
2023-04-03T15:02:51.647Z,53.55
2023-04-03T15:05:20.390Z,54.33
2023-04-03T15:07:55.784Z,52.83
2023-04-03T15:10:28.952Z,55.15
2023-04-03T15:12:57.470Z,49.27
2023-04-03T15:15:29.513Z,59.37
2023-04-03T15:18:01.145Z,51.58
2023-04-03T15:20:31.899Z,44.44
2023-04-03T15:23:02.084Z,40.71
2023-04-03T15:25:30.561Z,40.73
2023-04-03T15:27:58.701Z,39.14
2023-04-03T15:30:25.876Z,43.81
2023-04-03T15:32:54.164Z,45.63
2023-04-03T15:35:21.584Z,48.65
2023-04-03T15:37:49.185Z,50.15
2023-04-03T15:40:19.779Z,53.28
2023-04-03T15:42:52.381Z,53.66
2023-04-03T15:45:22.682Z,47.64
2023-04-03T15:47:51.131Z,53.13
2023-04-03T15:50:18.597Z,54.07
2023-04-03T15:52:45.823Z,56.74
2023-04-03T15:55:13.008Z,52.89
2023-04-03T16:00:13.952Z,46.61
2023-04-03T16:02:42.527Z,49.11
2023-04-03T16:05:13.314Z,52.84
2023-04-03T16:07:41.204Z,49.35
2023-04-03T16:10:10.725Z,56.13
2023-04-03T16:12:37.995Z,53.68
2023-04-03T16:15:06.760Z,55.28
2023-04-03T16:17:36.722Z,57.11
2023-04-03T16:20:08.107Z,65.58
2023-04-03T16:22:35.538Z,62.23
2023-04-03T16:25:03.490Z,54.04
2023-04-03T16:27:31.838Z,50.12
2023-04-03T16:29:59.831Z,49.59
2023-04-03T16:32:31.850Z,51.57
2023-04-03T16:37:33.100Z,49.77
2023-04-03T16:40:00.755Z,46.54
2023-04-03T16:42:27.934Z,52.67
2023-04-03T16:44:55.262Z,58.11
2023-04-03T16:47:22.441Z,63.84
2023-04-03T16:49:49.704Z,61.31
2023-04-03T16:52:16.971Z,64.69
2023-04-03T16:54:44.149Z,65.10
2023-04-03T16:57:11.398Z,66.71
2023-04-03T16:59:38.548Z,63.06
2023-04-03T17:02:05.733Z,66.30
2023-04-03T17:04:32.874Z,68.66
2023-04-03T17:07:06.289Z,64.69
2023-04-03T17:09:34.856Z,62.21
2023-04-03T17:12:02.790Z,60.79
2023-04-03T17:14:30.006Z,57.85
2023-04-03T17:16:57.404Z,62.99
2023-04-03T17:19:25.117Z,65.72
2023-04-03T17:21:52.981Z,67.54
2023-04-03T17:24:20.345Z,74.29
2023-04-03T17:26:47.554Z,78.50
2023-04-03T17:29:14.860Z,80.78
2023-04-03T17:31:42.054Z,78.71
2023-04-03T17:34:11.982Z,79.45
2023-04-03T17:36:41.309Z,77.61
2023-04-03T17:39:08.693Z,81.04
2023-04-03T17:41:36.035Z,85.03
2023-04-03T17:44:04.437Z,82.13
2023-04-03T17:46:33.215Z,83.82
2023-04-03T17:49:02.345Z,97.24
2023-04-03T17:51:29.687Z,95.84
2023-04-03T17:53:56.897Z,99.48
2023-04-03T17:56:29.543Z,96.90
2023-04-03T17:59:00.686Z,92.77
2023-04-03T18:01:31.780Z,92.17
2023-04-03T18:04:04.327Z,96.60
2023-04-03T18:06:44.372Z,96.88
2023-04-03T18:09:20.188Z,96.74
2023-04-03T18:11:50.001Z,97.56
2023-04-03T18:14:23.296Z,99.23
2023-04-03T18:16:51.568Z,100.00
2023-04-03T18:19:23.300Z,100.00
2023-04-03T18:22:03.721Z,100.00
2023-04-03T18:24:34.407Z,100.00
2023-04-03T18:27:11.022Z,100.00
2023-04-03T18:29:41.372Z,100.00
2023-04-03T18:32:13.678Z,100.00
2023-04-03T18:34:41.186Z,100.00
2023-04-03T18:37:08.342Z,100.00
2023-04-03T18:39:36.096Z,100.00
2023-04-03T18:42:17.207Z,100.00
2023-04-03T18:44:48.585Z,100.00
2023-04-03T18:47:15.915Z,100.00
2023-04-03T18:49:44.385Z,100.00
2023-04-03T18:52:13.787Z,100.00
2023-04-03T18:54:42.728Z,100.00
2023-04-03T18:57:09.987Z,100.00
2023-04-03T18:59:37.842Z,100.00
2023-04-03T19:02:06.736Z,100.00
2023-04-03T19:04:34.558Z,100.00
2023-04-03T19:07:05.461Z,100.00
2023-04-03T19:09:33.504Z,100.00
2023-04-03T19:12:01.902Z,100.00
2023-04-03T19:14:29.058Z,100.00
2023-04-03T19:16:56.339Z,100.00
2023-04-03T19:19:23.761Z,100.00
2023-04-03T19:21:51.291Z,100.00
2023-04-03T19:24:18.766Z,100.00
2023-04-03T19:26:46.035Z,100.00
2023-04-03T19:29:13.416Z,100.00
2023-04-03T19:31:40.908Z,100.00
2023-04-03T19:34:08.684Z,99.21
2023-04-03T19:36:37.379Z,96.86
2023-04-03T19:39:05.947Z,98.79
2023-04-03T19:41:36.663Z,98.26
2023-04-03T19:44:07.137Z,97.56
2023-04-03T19:46:36.185Z,97.87
2023-04-03T19:49:06.057Z,96.22
2023-04-03T19:51:33.370Z,98.41
2023-04-03T19:54:01.307Z,99.12
2023-04-03T19:56:28.625Z,100.00
2023-04-03T19:58:56.721Z,99.67
2023-04-03T20:01:24.712Z,99.50
2023-04-03T20:03:52.393Z,100.00
2023-04-03T20:06:19.779Z,99.24
2023-04-03T20:08:47.070Z,98.51
2023-04-03T20:11:15.336Z,97.73
2023-04-03T20:13:42.560Z,98.64
2023-04-03T20:16:10.134Z,100.00
2023-04-03T20:18:38.618Z,100.00
2023-04-03T20:21:07.034Z,100.00
2023-04-03T20:23:35.416Z,100.00
2023-04-03T20:26:12.687Z,100.00
2023-04-03T20:28:43.370Z,100.00
2023-04-03T20:31:12.051Z,100.00
2023-04-03T20:33:39.787Z,100.00
2023-04-03T20:36:07.486Z,100.00
2023-04-03T20:38:34.844Z,100.00
2023-04-03T20:41:02.311Z,100.00
2023-04-03T20:43:30.079Z,100.00
2023-04-03T20:46:03.059Z,100.00
2023-04-03T20:48:32.284Z,100.00
2023-04-03T20:51:08.810Z,100.00
2023-04-03T20:53:36.367Z,100.00
2023-04-03T20:56:04.062Z,100.00
2023-04-03T20:58:33.781Z,100.00
2023-04-03T21:01:01.544Z,100.00
2023-04-03T21:03:30.758Z,100.00
2023-04-03T21:06:00.163Z,100.00
2023-04-03T21:09:42.852Z,100.00
2023-04-03T21:13:25.560Z,99.37
2023-04-03T21:15:54.743Z,98.88
2023-04-03T21:19:23.629Z,96.20
2023-04-03T21:21:52.015Z,94.44
2023-04-03T21:24:19.713Z,92.90
2023-04-03T21:26:47.524Z,91.24
2023-04-03T21:29:15.597Z,88.72
2023-04-03T21:31:58.347Z,87.60
2023-04-03T21:34:30.877Z,86.60
2023-04-03T21:37:07.858Z,84.67
2023-04-03T21:39:35.244Z,84.56
2023-04-03T21:42:02.473Z,84.79
2023-04-03T21:44:29.699Z,81.29
2023-04-03T21:46:56.994Z,80.02
2023-04-03T21:49:25.762Z,80.80
2023-04-03T21:51:53.014Z,78.90
2023-04-03T21:54:20.695Z,79.07
2023-04-03T21:56:49.345Z,80.52
2023-04-03T21:59:16.806Z,79.43
2023-04-03T22:01:44.183Z,79.68
2023-04-03T22:04:11.499Z,78.78
2023-04-03T22:06:38.824Z,81.63
2023-04-03T22:09:06.541Z,80.78
2023-04-03T22:11:33.941Z,81.35
2023-04-03T22:14:01.095Z,82.41
2023-04-03T22:16:28.523Z,81.96
2023-04-03T22:18:59.108Z,79.23
2023-04-03T22:21:27.085Z,78.50
2023-04-03T22:23:54.683Z,80.46
2023-04-03T22:26:22.681Z,80.02
2023-04-03T22:28:49.894Z,78.73
2023-04-03T22:31:17.700Z,81.84
2023-04-03T22:33:46.118Z,83.59
2023-04-03T22:36:14.140Z,84.37
2023-04-03T22:38:46.750Z,86.12
2023-04-03T22:41:14.051Z,87.49
2023-04-03T22:43:41.508Z,89.64
2023-04-03T22:46:09.689Z,91.55
2023-04-03T22:48:43.247Z,93.08
2023-04-03T22:51:11.233Z,96.61
2023-04-03T22:53:38.867Z,99.10
2023-04-03T22:56:10.962Z,98.51
2023-04-03T22:58:39.223Z,99.42
2023-04-03T23:01:14.903Z,99.88
2023-04-03T23:03:43.292Z,100.00
2023-04-03T23:06:12.638Z,100.00
2023-04-03T23:08:40.729Z,100.00
2023-04-03T23:11:09.594Z,100.00
2023-04-03T23:13:37.419Z,100.00
2023-04-03T23:16:05.429Z,100.00
2023-04-03T23:18:33.794Z,100.00
2023-04-03T23:21:04.003Z,100.00
2023-04-03T23:23:32.039Z,100.00
2023-04-03T23:26:03.160Z,100.00
2023-04-03T23:28:31.151Z,100.00
2023-04-03T23:31:01.613Z,100.00
2023-04-03T23:33:31.256Z,100.00
2023-04-03T23:36:01.168Z,100.00
2023-04-03T23:38:29.586Z,100.00
2023-04-03T23:40:57.053Z,100.00
2023-04-03T23:43:24.219Z,100.00
2023-04-03T23:45:51.631Z,100.00
2023-04-03T23:48:18.882Z,100.00
2023-04-03T23:50:46.237Z,100.00
2023-04-03T23:53:13.575Z,100.00
2023-04-03T23:55:41.886Z,100.00
2023-04-03T23:58:09.439Z,100.00
